createdAt,value
2017-05-12T00:00:40.419Z,17.57
2017-05-12T00:01:41.148Z,17.60
2017-05-12T00:02:41.877Z,17.65
2017-05-12T00:03:42.605Z,17.60
2017-05-12T00:04:43.334Z,17.52
2017-05-12T00:05:44.316Z,17.52
2017-05-12T00:06:45.072Z,17.57
2017-05-12T00:07:45.801Z,17.60
2017-05-12T00:08:46.535Z,17.64
2017-05-12T00:09:47.257Z,17.54
2017-05-12T00:10:48.236Z,17.63
2017-05-12T00:11:48.965Z,17.49
2017-05-12T00:12:49.693Z,17.49
2017-05-12T00:13:50.421Z,17.44
2017-05-12T00:14:51.149Z,17.46
2017-05-12T00:15:52.128Z,17.45
2017-05-12T00:16:52.857Z,17.46
2017-05-12T00:17:53.586Z,17.45
2017-05-12T00:18:54.316Z,17.42
2017-05-12T00:19:55.046Z,17.41
2017-05-12T00:20:56.025Z,17.44
2017-05-12T00:21:56.752Z,17.41
2017-05-12T00:22:57.484Z,17.39
2017-05-12T00:23:58.211Z,17.36
2017-05-12T00:24:58.938Z,17.33
2017-05-12T00:25:59.917Z,17.33
2017-05-12T00:27:00.646Z,17.41
2017-05-12T00:28:01.378Z,17.42
2017-05-12T00:29:02.106Z,17.39
2017-05-12T00:30:02.831Z,17.38
2017-05-12T00:31:03.811Z,17.41
2017-05-12T00:32:04.540Z,17.36
2017-05-12T00:33:05.269Z,17.34
2017-05-12T00:34:05.998Z,17.39
2017-05-12T00:35:06.754Z,17.34
2017-05-12T00:36:07.734Z,17.44
2017-05-12T00:37:08.463Z,17.33
2017-05-12T00:38:09.192Z,17.41
2017-05-12T00:39:09.926Z,17.36
2017-05-12T00:40:12.907Z,17.33
2017-05-12T00:41:13.882Z,17.36
2017-05-12T00:42:14.612Z,17.38
2017-05-12T00:43:15.340Z,17.33
2017-05-12T00:44:16.069Z,17.33
2017-05-12T00:45:16.798Z,17.42
2017-05-12T00:46:17.777Z,17.39
2017-05-12T00:47:18.508Z,17.26
2017-05-12T00:48:19.264Z,17.29
2017-05-12T00:49:19.992Z,17.42
2017-05-12T00:50:20.723Z,17.41
2017-05-12T00:51:21.730Z,17.31
2017-05-12T00:52:22.458Z,17.34
2017-05-12T00:53:23.189Z,17.23
2017-05-12T00:54:23.916Z,17.30
2017-05-12T00:55:24.655Z,17.27
2017-05-12T00:56:25.626Z,17.19
2017-05-12T00:57:26.354Z,17.26
2017-05-12T00:58:27.084Z,17.24
2017-05-12T00:59:27.813Z,17.33
2017-05-12T01:00:28.534Z,17.30
2017-05-12T01:01:29.513Z,17.27
2017-05-12T01:02:30.242Z,17.26
2017-05-12T01:03:30.979Z,17.26
2017-05-12T01:04:31.704Z,17.27
2017-05-12T01:09:08.541Z,17.20
2017-05-12T01:10:09.268Z,17.11
2017-05-12T01:11:10.000Z,17.19
2017-05-12T01:15:57.735Z,17.06
2017-05-12T01:16:58.464Z,17.06
2017-05-12T01:17:59.190Z,17.04
2017-05-12T01:18:59.918Z,16.99
2017-05-12T01:20:00.646Z,17.04
2017-05-12T01:21:01.624Z,16.99
2017-05-12T01:22:02.353Z,17.02
2017-05-12T01:23:03.081Z,16.99
2017-05-12T01:24:03.808Z,17.02
2017-05-12T01:25:04.536Z,17.05
2017-05-12T01:26:05.513Z,17.02
2017-05-12T01:27:06.238Z,17.02
2017-05-12T01:28:06.966Z,16.93
2017-05-12T01:29:07.691Z,16.93
2017-05-12T01:30:08.423Z,16.86
2017-05-12T01:31:09.396Z,16.87
2017-05-12T01:32:10.156Z,16.89
2017-05-12T01:33:10.883Z,16.86
2017-05-12T01:34:11.608Z,16.91
2017-05-12T01:35:12.338Z,16.90
2017-05-12T01:36:13.312Z,16.90
2017-05-12T01:37:14.037Z,16.78
2017-05-12T01:38:14.764Z,16.83
2017-05-12T01:39:15.489Z,16.83
2017-05-12T01:40:16.215Z,16.79
2017-05-12T01:41:17.193Z,16.74
2017-05-12T01:42:17.920Z,16.71
2017-05-12T01:43:18.647Z,16.74
2017-05-12T01:49:22.234Z,16.64
2017-05-12T01:50:22.965Z,16.64
2017-05-12T01:51:23.692Z,16.64
2017-05-12T01:52:24.421Z,16.50
2017-05-12T01:53:25.195Z,16.50
2017-05-12T01:54:26.128Z,16.53
2017-05-12T01:55:26.857Z,16.50
2017-05-12T01:56:27.583Z,16.54
2017-05-12T01:57:28.312Z,16.56
2017-05-12T01:58:29.041Z,16.51
2017-05-12T01:59:30.019Z,16.56
2017-05-12T02:00:30.772Z,16.49
2017-05-12T02:01:31.528Z,16.49
2017-05-12T02:02:32.253Z,16.49
2017-05-12T02:03:32.980Z,16.51
2017-05-12T02:04:33.983Z,16.41
2017-05-12T02:05:34.709Z,16.42
2017-05-12T02:06:35.439Z,16.46
2017-05-12T02:07:36.165Z,16.43
2017-05-12T02:08:36.894Z,16.39
2017-05-12T02:09:37.894Z,16.36
2017-05-12T02:10:38.622Z,16.38
2017-05-12T02:11:39.348Z,16.35
2017-05-12T02:12:40.079Z,16.29
2017-05-12T02:13:40.808Z,16.28
2017-05-12T02:14:41.783Z,16.26
2017-05-12T02:15:42.511Z,16.29
2017-05-12T02:16:43.239Z,16.31
2017-05-12T02:17:43.966Z,16.29
2017-05-12T02:18:44.693Z,16.17
2017-05-12T02:19:45.666Z,16.28
2017-05-12T02:20:46.394Z,16.10
2017-05-12T02:21:47.118Z,16.05
2017-05-12T02:22:47.846Z,16.12
2017-05-12T02:23:48.573Z,16.02
2017-05-12T02:24:49.546Z,16.04
2017-05-12T02:25:50.275Z,16.00
2017-05-12T02:26:50.999Z,16.00
2017-05-12T02:27:51.726Z,15.98
2017-05-12T02:28:52.458Z,15.92
2017-05-12T02:29:53.431Z,15.97
2017-05-12T02:30:54.182Z,16.04
2017-05-12T02:31:54.933Z,16.00
2017-05-12T02:32:55.658Z,16.00
2017-05-12T02:33:56.387Z,16.02
2017-05-12T02:34:57.360Z,15.98
2017-05-12T02:35:58.086Z,16.00
2017-05-12T02:36:58.813Z,16.00
2017-05-12T02:37:59.538Z,15.98
2017-05-12T02:39:00.266Z,15.95
2017-05-12T02:40:01.242Z,15.90
2017-05-12T02:41:01.966Z,15.88
2017-05-12T02:42:02.694Z,15.86
2017-05-12T02:43:03.421Z,15.79
2017-05-12T02:44:04.146Z,15.88
2017-05-12T02:45:05.121Z,15.84
2017-05-12T02:46:05.848Z,15.76
2017-05-12T02:47:06.571Z,15.77
2017-05-12T02:48:07.298Z,15.73
2017-05-12T02:49:08.020Z,15.61
2017-05-12T02:50:08.998Z,15.67
2017-05-12T02:51:09.721Z,15.67
2017-05-12T02:52:10.448Z,15.65
2017-05-12T02:53:11.173Z,15.67
2017-05-12T02:54:11.900Z,15.61
2017-05-12T02:55:12.874Z,15.72
2017-05-12T02:56:13.602Z,15.65
2017-05-12T02:57:14.325Z,15.62
2017-05-12T02:58:15.073Z,15.64
2017-05-12T02:59:15.796Z,15.54
2017-05-12T03:00:16.772Z,15.43
2017-05-12T03:01:17.493Z,15.42
2017-05-12T03:02:18.220Z,15.54
2017-05-12T03:03:18.943Z,15.43
2017-05-12T03:04:19.667Z,15.37
2017-05-12T03:05:20.672Z,15.46
2017-05-12T03:06:21.394Z,15.57
2017-05-12T03:07:22.122Z,15.42
2017-05-12T03:08:22.847Z,15.40
2017-05-12T03:09:23.572Z,15.44
2017-05-12T03:10:24.550Z,15.42
2017-05-12T03:11:25.272Z,15.40
2017-05-12T03:12:25.996Z,15.47
2017-05-12T03:13:26.725Z,15.51
2017-05-12T03:14:27.449Z,15.39
2017-05-12T03:15:28.423Z,15.47
2017-05-12T03:16:29.150Z,15.40
2017-05-12T03:17:29.874Z,15.44
2017-05-12T03:18:30.598Z,15.40
2017-05-12T03:19:31.325Z,15.39
2017-05-12T03:20:32.300Z,15.37
2017-05-12T03:21:33.026Z,15.39
2017-05-12T03:22:33.751Z,15.39
2017-05-12T03:23:34.477Z,15.40
2017-05-12T03:24:35.205Z,15.36
2017-05-12T03:25:36.206Z,15.29
2017-05-12T03:26:36.931Z,15.25
2017-05-12T03:27:37.658Z,15.36
2017-05-12T03:28:38.386Z,15.25
2017-05-12T03:29:39.114Z,15.28
2017-05-12T03:30:40.089Z,15.29
2017-05-12T03:31:40.817Z,15.29
2017-05-12T03:32:41.542Z,15.31
2017-05-12T03:33:42.268Z,15.35
2017-05-12T03:34:42.988Z,15.27
2017-05-12T03:35:43.967Z,15.27
2017-05-12T03:36:44.695Z,15.31
2017-05-12T03:37:45.424Z,15.29
2017-05-12T03:38:46.150Z,15.33
2017-05-12T03:39:46.878Z,15.28
2017-05-12T03:40:47.856Z,15.28
2017-05-12T03:41:48.579Z,15.29
2017-05-12T03:42:49.306Z,15.33
2017-05-12T03:43:50.028Z,15.35
2017-05-12T03:44:50.752Z,15.31
2017-05-12T03:45:51.729Z,15.37
2017-05-12T03:46:52.453Z,15.35
2017-05-12T03:47:53.182Z,15.31
2017-05-12T03:48:53.932Z,15.31
2017-05-12T03:49:54.660Z,15.25
2017-05-12T03:50:55.640Z,15.36
2017-05-12T03:51:56.368Z,15.29
2017-05-12T03:52:57.088Z,15.27
2017-05-12T03:53:57.818Z,15.35
2017-05-12T03:54:58.547Z,15.25
2017-05-12T03:55:59.519Z,15.25
2017-05-12T03:57:00.250Z,15.29
2017-05-12T03:58:00.978Z,15.28
2017-05-12T03:59:01.706Z,15.22
2017-05-12T04:00:02.456Z,15.24
2017-05-12T04:01:03.432Z,15.21
2017-05-12T04:02:04.156Z,15.31
2017-05-12T04:03:04.883Z,15.24
2017-05-12T04:04:05.604Z,15.29
2017-05-12T04:05:06.334Z,15.29
2017-05-12T04:06:07.309Z,15.25
2017-05-12T04:07:08.038Z,15.25
2017-05-12T04:08:08.790Z,15.31
2017-05-12T04:09:09.514Z,15.27
2017-05-12T04:10:10.241Z,15.29
2017-05-12T04:11:11.219Z,15.28
2017-05-12T04:12:11.972Z,15.19
2017-05-12T04:13:12.697Z,15.25
2017-05-12T04:14:13.427Z,15.28
2017-05-12T04:15:14.154Z,15.24
2017-05-12T04:16:15.158Z,15.19
2017-05-12T04:17:15.885Z,15.25
2017-05-12T04:18:16.610Z,15.24
2017-05-12T04:19:17.333Z,15.17
2017-05-12T04:20:18.059Z,15.24
2017-05-12T04:21:19.039Z,15.22
2017-05-12T04:22:19.765Z,15.21
2017-05-12T04:23:20.494Z,15.15
2017-05-12T04:24:21.245Z,15.21
2017-05-12T04:25:21.972Z,15.21
2017-05-12T04:26:22.949Z,15.19
2017-05-12T04:27:23.678Z,15.25
2017-05-12T04:28:24.405Z,15.22
2017-05-12T04:29:25.133Z,15.33
2017-05-12T04:30:25.861Z,15.31
2017-05-12T04:31:26.839Z,15.25
2017-05-12T04:32:27.567Z,15.28
2017-05-12T04:33:28.294Z,15.31
2017-05-12T04:34:29.025Z,15.29
2017-05-12T04:35:29.754Z,15.29
2017-05-12T04:36:30.782Z,15.28
2017-05-12T04:37:31.511Z,15.29
2017-05-12T04:38:32.240Z,15.37
2017-05-12T04:39:32.965Z,15.39
2017-05-12T04:40:33.693Z,15.33
2017-05-12T04:41:34.671Z,15.31
2017-05-12T04:42:35.405Z,15.33
2017-05-12T04:43:36.128Z,15.33
2017-05-12T04:44:36.855Z,15.33
2017-05-12T04:45:37.586Z,15.37
2017-05-12T04:46:38.564Z,15.28
2017-05-12T04:47:39.286Z,15.42
2017-05-12T04:48:40.005Z,15.40
2017-05-12T04:49:40.757Z,15.40
2017-05-12T04:50:41.483Z,15.29
2017-05-12T04:51:42.464Z,15.39
2017-05-12T04:52:43.192Z,15.42
2017-05-12T04:53:43.920Z,15.40
2017-05-12T04:54:44.653Z,15.40
2017-05-12T04:55:45.381Z,15.43
2017-05-12T04:56:46.361Z,15.43
2017-05-12T04:57:47.088Z,15.39
2017-05-12T04:58:47.818Z,15.52
2017-05-12T04:59:48.549Z,15.42
2017-05-12T05:00:49.283Z,15.46
2017-05-12T05:01:50.257Z,15.36
2017-05-12T05:02:50.987Z,15.47
2017-05-12T05:03:51.715Z,15.43
2017-05-12T05:04:52.447Z,15.46
2017-05-12T05:05:53.177Z,15.39
2017-05-12T05:06:54.154Z,15.39
2017-05-12T05:07:54.883Z,15.40
2017-05-12T05:08:55.616Z,15.35
2017-05-12T05:09:56.346Z,15.28
2017-05-12T05:10:57.339Z,15.24
2017-05-12T05:11:58.316Z,15.28
2017-05-12T05:12:59.045Z,15.29
2017-05-12T05:13:59.774Z,15.25
2017-05-12T05:15:00.526Z,15.25
2017-05-12T05:16:01.259Z,15.25
2017-05-12T05:17:02.289Z,15.25
2017-05-12T05:18:03.022Z,15.22
2017-05-12T05:19:03.750Z,15.19
2017-05-12T05:20:04.481Z,15.19
2017-05-12T05:21:05.215Z,15.22
2017-05-12T05:22:06.240Z,15.17
2017-05-12T05:23:06.972Z,15.15
2017-05-12T05:24:07.727Z,15.19
2017-05-12T05:25:08.457Z,15.11
2017-05-12T05:26:09.189Z,15.19
2017-05-12T05:27:10.167Z,15.15
2017-05-12T05:28:10.898Z,15.03
2017-05-12T05:29:11.629Z,15.00
2017-05-12T05:30:12.361Z,15.17
2017-05-12T05:31:13.117Z,15.03
2017-05-12T05:32:14.096Z,15.02
2017-05-12T05:33:14.828Z,15.03
2017-05-12T05:34:15.560Z,15.00
2017-05-12T05:35:16.295Z,15.14
2017-05-12T05:36:17.048Z,15.11
2017-05-12T05:37:18.051Z,15.15
2017-05-12T05:38:18.785Z,15.15
2017-05-12T05:39:19.516Z,15.18
2017-05-12T05:40:20.272Z,15.15
2017-05-12T05:41:21.002Z,15.10
2017-05-12T05:42:21.985Z,15.17
2017-05-12T05:43:22.715Z,15.15
2017-05-12T05:44:23.471Z,15.11
2017-05-12T05:45:24.198Z,15.18
2017-05-12T05:46:24.930Z,15.11
2017-05-12T05:47:25.914Z,15.14
2017-05-12T05:48:26.643Z,15.10
2017-05-12T05:49:27.375Z,15.18
2017-05-12T05:50:28.105Z,15.07
2017-05-12T05:51:28.833Z,15.19
2017-05-12T05:52:29.837Z,15.10
2017-05-12T05:53:30.567Z,15.11
2017-05-12T05:54:31.323Z,15.19
2017-05-12T05:55:32.051Z,15.07
2017-05-12T05:56:32.778Z,15.19
2017-05-12T05:57:33.760Z,15.14
2017-05-12T05:58:34.490Z,15.19
2017-05-12T05:59:35.245Z,15.15
2017-05-12T06:00:35.976Z,15.22
2017-05-12T06:01:36.706Z,15.19
2017-05-12T06:02:37.686Z,15.19
2017-05-12T06:03:38.416Z,15.17
2017-05-12T06:04:39.146Z,15.18
2017-05-12T06:05:39.875Z,15.37
2017-05-12T06:06:40.607Z,15.28
2017-05-12T06:07:41.588Z,15.15
2017-05-12T06:08:42.321Z,15.25
2017-05-12T06:09:43.057Z,15.15
2017-05-12T06:10:43.786Z,15.15
2017-05-12T06:11:44.519Z,15.11
2017-05-12T06:12:45.496Z,15.17
2017-05-12T06:13:46.231Z,15.15
2017-05-12T06:14:46.963Z,15.21
2017-05-12T06:15:47.719Z,15.22
2017-05-12T06:16:48.454Z,15.17
2017-05-12T06:17:49.460Z,15.19
2017-05-12T06:18:50.193Z,15.07
2017-05-12T06:19:50.948Z,14.92
2017-05-12T06:20:51.680Z,14.92
2017-05-12T06:21:52.408Z,14.91
2017-05-12T06:22:53.390Z,14.92
2017-05-12T06:23:54.120Z,14.89
2017-05-12T06:24:54.856Z,14.91
2017-05-12T06:25:55.587Z,14.89
2017-05-12T06:26:56.315Z,14.88
2017-05-12T06:27:57.294Z,14.86
2017-05-12T06:28:58.025Z,14.85
2017-05-12T06:29:58.752Z,14.88
2017-05-12T06:30:59.485Z,14.86
2017-05-12T06:32:00.215Z,14.86
2017-05-12T06:33:01.191Z,14.81
2017-05-12T06:34:01.947Z,14.85
2017-05-12T06:35:02.674Z,14.88
2017-05-12T06:36:03.407Z,14.78
2017-05-12T06:37:04.128Z,14.82
2017-05-12T06:38:05.111Z,14.85
2017-05-12T06:39:05.866Z,14.85
2017-05-12T06:40:06.598Z,14.81
2017-05-12T06:41:07.330Z,14.81
2017-05-12T06:42:08.061Z,14.85
2017-05-12T06:43:09.040Z,14.89
2017-05-12T06:44:09.773Z,14.91
2017-05-12T06:45:10.504Z,14.92
2017-05-12T06:46:11.234Z,14.94
2017-05-12T06:47:11.965Z,14.89
2017-05-12T06:48:12.945Z,14.81
2017-05-12T06:49:13.681Z,14.85
2017-05-12T06:50:14.441Z,14.81
2017-05-12T06:51:15.174Z,14.86
2017-05-12T06:52:15.932Z,14.94
2017-05-12T06:53:16.914Z,14.96
2017-05-12T06:54:17.653Z,14.86
2017-05-12T06:55:18.403Z,14.94
2017-05-12T06:56:19.135Z,15.00
2017-05-12T06:57:19.890Z,14.99
2017-05-12T06:58:20.874Z,14.92
2017-05-12T06:59:21.605Z,14.99
2017-05-12T07:00:22.335Z,15.02
2017-05-12T07:01:23.070Z,14.97
2017-05-12T07:02:23.799Z,15.06
2017-05-12T07:03:24.779Z,15.06
2017-05-12T07:04:25.513Z,15.02
2017-05-12T07:05:26.243Z,15.06
2017-05-12T07:06:26.973Z,15.09
2017-05-12T07:07:27.709Z,15.07
2017-05-12T07:08:28.703Z,15.00
2017-05-12T07:09:29.673Z,15.06
2017-05-12T07:10:30.430Z,15.06
2017-05-12T07:11:31.163Z,14.99
2017-05-12T07:12:31.915Z,15.02
2017-05-12T07:13:32.896Z,14.91
2017-05-12T07:14:33.653Z,15.06
2017-05-12T07:15:34.384Z,14.94
2017-05-12T07:16:35.116Z,14.97
2017-05-12T07:17:35.850Z,14.99
2017-05-12T07:18:36.833Z,14.96
2017-05-12T07:19:37.589Z,14.97
2017-05-12T07:20:38.325Z,14.96
2017-05-12T07:21:39.057Z,14.94
2017-05-12T07:22:39.782Z,14.96
2017-05-12T07:23:40.767Z,14.96
2017-05-12T07:24:41.499Z,15.00
2017-05-12T07:25:42.233Z,14.94
2017-05-12T07:26:42.963Z,14.97
2017-05-12T07:27:43.694Z,14.91
2017-05-12T07:28:44.678Z,15.02
2017-05-12T07:29:45.404Z,14.96
2017-05-12T07:33:17.323Z,14.96
2017-05-12T07:34:18.294Z,14.97
2017-05-12T07:35:19.031Z,14.92
2017-05-12T07:36:19.765Z,14.97
2017-05-12T07:37:20.498Z,14.96
2017-05-12T07:38:21.229Z,14.96
2017-05-12T07:39:22.214Z,14.92
2017-05-12T07:42:56.728Z,14.97
2017-05-12T07:43:57.459Z,15.00
2017-05-12T07:44:58.188Z,14.89
2017-05-12T07:45:59.175Z,14.85
2017-05-12T07:46:59.904Z,14.97
2017-05-12T07:48:00.884Z,14.85
2017-05-12T07:49:01.615Z,14.99
2017-05-12T07:50:02.347Z,14.86
2017-05-12T07:51:03.079Z,14.92
2017-05-12T07:52:03.806Z,14.94
2017-05-12T07:53:04.788Z,14.86
2017-05-12T07:54:05.517Z,14.97
2017-05-12T07:55:06.247Z,14.92
2017-05-12T07:56:06.977Z,15.03
2017-05-12T07:57:07.730Z,15.02
2017-05-12T07:58:08.709Z,15.09
2017-05-12T07:59:09.467Z,15.04
2017-05-12T08:00:10.224Z,15.07
2017-05-12T08:01:10.954Z,15.03
2017-05-12T08:02:11.708Z,14.96
2017-05-12T08:03:12.689Z,15.03
2017-05-12T08:04:13.419Z,15.09
2017-05-12T08:05:14.172Z,15.15
2017-05-12T08:06:14.901Z,15.03
2017-05-12T08:07:15.635Z,15.10
2017-05-12T08:08:16.639Z,15.18
2017-05-12T08:09:17.390Z,15.19
2017-05-12T08:10:18.128Z,15.07
2017-05-12T08:11:18.859Z,15.19
2017-05-12T08:12:19.590Z,15.21
2017-05-12T08:13:20.593Z,15.11
2017-05-12T08:14:21.348Z,15.09
2017-05-12T08:15:22.091Z,15.22
2017-05-12T08:16:22.837Z,15.17
2017-05-12T08:17:23.569Z,15.19
2017-05-12T08:18:24.575Z,15.18
2017-05-12T08:19:25.307Z,15.10
2017-05-12T08:20:26.041Z,15.11
2017-05-12T08:21:26.769Z,15.14
2017-05-12T08:22:27.525Z,15.28
2017-05-12T08:23:28.508Z,15.33
2017-05-12T08:24:29.264Z,15.37
2017-05-12T08:25:29.995Z,15.37
2017-05-12T08:26:30.722Z,15.40
2017-05-12T08:27:31.450Z,15.54
2017-05-12T08:28:32.429Z,15.39
2017-05-12T08:29:33.161Z,15.40
2017-05-12T08:30:33.917Z,15.39
2017-05-12T08:31:34.653Z,15.57
2017-05-12T08:32:35.385Z,15.58
2017-05-12T08:33:36.366Z,15.64
2017-05-12T08:34:37.102Z,15.61
2017-05-12T08:35:37.835Z,15.64
2017-05-12T08:36:38.593Z,15.70
2017-05-12T08:37:39.325Z,15.70
2017-05-12T08:38:40.564Z,15.79
2017-05-12T08:39:41.323Z,15.82
2017-05-12T08:40:42.056Z,15.84
2017-05-12T08:41:42.789Z,15.91
2017-05-12T08:42:43.522Z,16.00
2017-05-12T08:43:44.509Z,16.00
2017-05-12T08:44:45.266Z,15.92
2017-05-12T08:45:45.999Z,16.08
2017-05-12T08:46:46.758Z,16.01
2017-05-12T08:47:47.488Z,15.90
2017-05-12T08:48:48.470Z,15.79
2017-05-12T08:49:49.203Z,15.80
2017-05-12T08:50:49.938Z,15.88
2017-05-12T08:51:50.668Z,15.91
2017-05-12T08:52:51.400Z,15.95
2017-05-12T08:53:52.382Z,16.00
2017-05-12T08:54:53.115Z,16.04
2017-05-12T08:55:53.873Z,16.12
2017-05-12T08:56:54.605Z,16.08
2017-05-12T08:57:55.341Z,16.16
2017-05-12T08:58:56.313Z,15.97
2017-05-12T08:59:57.042Z,15.88
2017-05-12T09:00:57.775Z,15.90
2017-05-12T09:01:58.508Z,15.88
2017-05-12T09:02:59.239Z,15.83
2017-05-12T09:04:00.221Z,15.82
2017-05-12T09:05:00.979Z,15.73
2017-05-12T09:06:01.708Z,15.67
2017-05-12T09:07:02.441Z,15.58
2017-05-12T09:08:03.173Z,15.55
2017-05-12T09:09:04.416Z,15.52
2017-05-12T09:10:05.172Z,15.40
2017-05-12T09:11:05.905Z,15.47
2017-05-12T09:12:06.636Z,15.35
2017-05-12T09:13:07.366Z,15.42
2017-05-12T09:14:08.351Z,15.46
2017-05-12T09:15:09.107Z,15.40
2017-05-12T09:16:09.837Z,15.43
2017-05-12T09:17:10.572Z,15.47
2017-05-12T09:18:11.326Z,15.47
2017-05-12T09:19:12.308Z,15.47
2017-05-12T09:20:13.043Z,15.55
2017-05-12T09:21:13.775Z,15.55
2017-05-12T09:22:14.510Z,15.62
2017-05-12T09:23:15.265Z,15.64
2017-05-12T09:24:16.246Z,15.88
2017-05-12T09:25:16.980Z,15.83
2017-05-12T09:26:17.713Z,15.98
2017-05-12T09:27:18.446Z,16.00
2017-05-12T09:28:19.177Z,15.95
2017-05-12T09:29:20.167Z,15.98
2017-05-12T09:30:20.899Z,16.09
2017-05-12T09:31:21.635Z,16.23
2017-05-12T09:32:22.370Z,16.10
2017-05-12T09:33:23.102Z,16.04
2017-05-12T09:34:24.093Z,16.02
2017-05-12T09:35:24.828Z,16.12
2017-05-12T09:36:25.591Z,16.24
2017-05-12T09:37:26.346Z,16.24
2017-05-12T09:38:27.108Z,16.36
2017-05-12T09:39:28.090Z,16.53
2017-05-12T09:40:28.823Z,16.65
2017-05-12T09:41:29.558Z,16.58
2017-05-12T09:42:30.293Z,16.58
2017-05-12T09:43:31.022Z,16.83
2017-05-12T09:44:32.005Z,16.76
2017-05-12T09:45:32.741Z,16.87
2017-05-12T09:46:33.474Z,16.99
2017-05-12T09:47:34.208Z,17.05
2017-05-12T09:48:34.972Z,17.27
2017-05-12T09:49:35.958Z,17.23
2017-05-12T09:50:36.693Z,17.20
2017-05-12T09:51:37.422Z,17.22
2017-05-12T09:52:38.184Z,17.38
2017-05-12T09:53:38.918Z,17.36
2017-05-12T09:54:39.907Z,17.23
2017-05-12T09:55:40.640Z,17.09
2017-05-12T09:56:41.399Z,17.12
2017-05-12T09:57:42.142Z,17.11
2017-05-12T09:58:42.894Z,17.12
2017-05-12T09:59:43.876Z,17.15
2017-05-12T10:00:44.610Z,17.04
2017-05-12T10:01:45.346Z,17.19
2017-05-12T10:02:46.077Z,17.20
2017-05-12T10:03:46.811Z,17.11
2017-05-12T10:04:47.794Z,16.99
2017-05-12T10:05:48.551Z,16.94
2017-05-12T10:06:49.286Z,16.96
2017-05-12T10:07:50.045Z,16.89
2017-05-12T10:08:50.775Z,16.99
2017-05-12T10:09:51.766Z,17.11
2017-05-12T10:10:52.522Z,17.16
2017-05-12T10:11:53.254Z,17.20
2017-05-12T10:12:53.987Z,17.12
2017-05-12T10:13:54.723Z,17.19
2017-05-12T10:14:55.708Z,17.20
2017-05-12T10:15:56.467Z,17.22
2017-05-12T10:16:57.202Z,17.31
2017-05-12T10:17:57.938Z,17.34
2017-05-12T10:18:58.672Z,17.33
2017-05-12T10:19:59.658Z,17.30
2017-05-12T10:21:00.394Z,17.24
2017-05-12T10:22:01.132Z,17.38
2017-05-12T10:23:01.893Z,17.44
2017-05-12T10:24:02.632Z,17.45
2017-05-12T10:25:03.616Z,17.54
2017-05-12T10:26:04.352Z,17.57
2017-05-12T10:27:05.091Z,17.52
2017-05-12T10:28:05.825Z,17.65
2017-05-12T10:29:06.562Z,17.42
2017-05-12T10:30:07.548Z,17.42
2017-05-12T10:31:08.284Z,17.63
2017-05-12T10:32:09.029Z,17.70
2017-05-12T10:33:09.787Z,17.85
2017-05-12T10:34:10.548Z,17.83
2017-05-12T10:35:11.561Z,17.76
2017-05-12T10:36:12.298Z,17.83
2017-05-12T10:37:13.034Z,17.78
2017-05-12T10:38:13.773Z,17.74
2017-05-12T10:39:14.510Z,17.89
2017-05-12T10:40:15.498Z,17.83
2017-05-12T10:41:16.235Z,17.68
2017-05-12T10:42:16.968Z,17.85
2017-05-12T10:45:53.510Z,18.19
2017-05-12T10:46:54.249Z,18.00
2017-05-12T10:47:54.988Z,18.01
2017-05-12T10:48:55.728Z,18.13
2017-05-12T10:49:56.471Z,17.98
2017-05-12T10:50:57.480Z,17.98
2017-05-12T10:54:30.389Z,18.35
2017-05-12T10:55:31.125Z,18.28
2017-05-12T10:56:32.115Z,18.40
2017-05-12T10:57:32.861Z,18.45
2017-05-12T10:58:33.602Z,18.44
2017-05-12T10:59:34.343Z,18.49
2017-05-12T11:00:35.084Z,18.45
2017-05-12T11:01:36.078Z,18.49
2017-05-12T11:02:36.818Z,18.43
2017-05-12T11:03:37.559Z,18.58
2017-05-12T11:04:38.297Z,18.56
2017-05-12T11:05:39.039Z,18.47
2017-05-12T11:06:40.050Z,18.28
2017-05-12T11:07:40.827Z,18.29
2017-05-12T11:08:41.581Z,18.45
2017-05-12T11:09:42.355Z,18.49
2017-05-12T11:10:43.090Z,18.58
2017-05-12T11:11:44.080Z,18.43
2017-05-12T11:12:44.826Z,18.52
2017-05-12T11:13:45.591Z,18.52
2017-05-12T11:14:46.336Z,18.23
2017-05-12T11:15:47.081Z,18.28
2017-05-12T11:16:48.067Z,18.20
2017-05-12T11:17:48.807Z,18.03
2017-05-12T11:18:49.553Z,18.22
2017-05-12T11:19:50.286Z,18.22
2017-05-12T11:24:27.122Z,18.33
2017-05-12T11:25:27.864Z,18.49
2017-05-12T11:26:28.608Z,18.53
2017-05-12T11:27:29.349Z,18.49
2017-05-12T11:28:30.121Z,18.71
2017-05-12T11:29:31.110Z,18.78
2017-05-12T11:30:31.851Z,18.93
2017-05-12T11:31:32.601Z,19.09
2017-05-12T11:32:33.346Z,19.52
2017-05-12T11:33:34.119Z,19.58
2017-05-12T11:34:35.142Z,19.86
2017-05-12T11:35:35.890Z,19.95
2017-05-12T11:36:36.639Z,20.31
2017-05-12T11:41:13.247Z,21.14
2017-05-12T11:42:13.992Z,21.17
2017-05-12T11:43:14.982Z,21.15
2017-05-12T11:44:15.738Z,21.14
2017-05-12T11:45:16.479Z,20.74
2017-05-12T11:46:17.220Z,20.32
2017-05-12T11:47:17.967Z,20.00
2017-05-12T11:48:18.958Z,20.13
2017-05-12T11:49:19.703Z,20.26
2017-05-12T11:50:20.444Z,20.56
2017-05-12T11:51:21.187Z,20.82
2017-05-12T11:52:21.957Z,21.29
2017-05-12T11:53:22.948Z,21.02
2017-05-12T11:54:23.698Z,21.15
2017-05-12T11:55:24.446Z,21.00
2017-05-12T11:56:25.522Z,21.76
2017-05-12T11:57:26.198Z,22.00
2017-05-12T11:58:27.197Z,22.60
2017-05-12T11:59:27.945Z,22.54
2017-05-12T12:00:28.690Z,22.90
2017-05-12T12:01:29.437Z,23.55
2017-05-12T12:02:30.185Z,23.18
2017-05-12T12:03:31.179Z,22.80
2017-05-12T12:04:31.930Z,22.90
2017-05-12T12:09:08.544Z,22.99
2017-05-12T12:10:09.294Z,23.17
2017-05-12T12:11:10.316Z,23.44
2017-05-12T12:12:11.060Z,23.50
2017-05-12T12:13:11.808Z,23.62
2017-05-12T12:14:12.580Z,24.10
2017-05-12T12:15:13.330Z,23.91
2017-05-12T12:16:14.332Z,24.03
2017-05-12T12:17:15.108Z,24.13
2017-05-12T12:18:18.141Z,23.63
2017-05-12T12:19:18.890Z,23.44
2017-05-12T12:20:19.637Z,23.05
2017-05-12T12:21:20.635Z,22.75
2017-05-12T12:22:21.384Z,22.29
2017-05-12T12:23:22.455Z,22.14
2017-05-12T12:24:23.127Z,21.60
2017-05-12T12:25:23.871Z,21.67
2017-05-12T12:26:24.864Z,21.55
2017-05-12T12:27:25.605Z,21.54
2017-05-12T12:28:26.345Z,21.12
2017-05-12T12:29:27.092Z,21.05
2017-05-12T12:30:27.855Z,21.06
2017-05-12T12:31:28.872Z,20.81
2017-05-12T12:36:16.697Z,21.05
2017-05-12T12:37:17.439Z,20.93
2017-05-12T12:38:18.205Z,20.96
2017-05-12T12:39:18.942Z,21.12
2017-05-12T12:40:19.680Z,21.12
2017-05-12T12:41:20.674Z,20.85
2017-05-12T12:42:21.417Z,20.65
2017-05-12T12:43:22.161Z,20.66
2017-05-12T12:44:22.899Z,20.78
2017-05-12T12:45:23.640Z,20.78
2017-05-12T12:46:24.630Z,20.58
2017-05-12T12:47:25.371Z,20.58
2017-05-12T12:48:26.137Z,20.59
2017-05-12T12:49:26.879Z,20.62
2017-05-12T12:50:27.621Z,20.65
2017-05-12T12:51:28.638Z,20.63
2017-05-12T12:52:29.402Z,20.63
2017-05-12T12:53:30.145Z,20.60
2017-05-12T12:54:30.887Z,20.56
2017-05-12T12:55:31.630Z,20.58
2017-05-12T12:56:32.621Z,20.63
2017-05-12T12:57:33.391Z,20.44
2017-05-12T12:58:34.155Z,20.39
2017-05-12T12:59:34.909Z,20.40
2017-05-12T13:00:35.663Z,20.37
2017-05-12T13:01:36.656Z,20.31
2017-05-12T13:02:37.394Z,20.28
2017-05-12T13:03:38.131Z,20.26
2017-05-12T13:04:38.871Z,20.25
2017-05-12T13:05:39.607Z,20.21
2017-05-12T13:06:40.595Z,20.00
2017-05-12T13:07:41.331Z,19.55
2017-05-12T13:08:42.067Z,19.33
2017-05-12T13:09:42.826Z,18.80
2017-05-12T13:10:43.566Z,18.11
2017-05-12T13:11:44.551Z,17.65
2017-05-12T13:12:45.286Z,17.33
2017-05-12T13:13:46.017Z,16.89
2017-05-12T13:18:33.784Z,15.55
2017-05-12T13:19:34.522Z,15.44
2017-05-12T13:20:35.254Z,15.15
2017-05-12T13:21:35.988Z,14.97
2017-05-12T13:22:36.719Z,14.89
2017-05-12T13:23:37.702Z,14.84
2017-05-12T13:24:38.436Z,14.86
2017-05-12T13:25:39.197Z,14.96
2017-05-12T13:26:39.931Z,15.02
2017-05-12T13:27:40.665Z,14.86
2017-05-12T13:28:41.650Z,14.89
2017-05-12T13:29:42.408Z,14.92
2017-05-12T13:30:43.167Z,14.96
2017-05-12T13:31:43.900Z,15.06
2017-05-12T13:32:44.635Z,14.97
2017-05-12T13:33:45.614Z,15.02
2017-05-12T13:34:46.364Z,15.09
2017-05-12T13:39:34.127Z,15.22
2017-05-12T13:40:34.860Z,15.35
2017-05-12T13:41:35.599Z,15.35
2017-05-12T13:42:36.333Z,15.49
2017-05-12T13:43:37.066Z,15.49
2017-05-12T13:44:38.052Z,15.55
2017-05-12T13:45:38.787Z,15.62
2017-05-12T13:46:39.523Z,15.76
2017-05-12T13:47:40.287Z,15.92